Time;durP1;ratioP1;P1;durP2;ratioP2;P2;SDS_P1;SDS_P2;PMS_P1;PMS_P2;Temp;Humidity;BMP_temperature;BMP_pressure;BME280_temperature;BME280_humidity;BME280_pressure;Samples;Min_cycle;Max_cycle;Signal;HPM_P1;HPM_P2
2021/11/03 00:01:20;;;;;;;10.32;3.90;;;;;;;3.67;100.00;94469.31;5030810;28;24420;-75
2021/11/03 00:03:49;;;;;;;7.70;4.38;;;;;;;3.69;100.00;94467.50;5030631;28;24431;-74
2021/11/03 00:06:17;;;;;;;4.65;4.25;;;;;;;3.80;100.00;94467.72;5030261;28;24946;-75
2021/11/03 00:08:44;;;;;;;4.60;4.10;;;;;;;3.87;100.00;94471.59;5030569;28;24984;-74
2021/11/03 00:11:12;;;;;;;4.63;4.10;;;;;;;3.90;100.00;94470.59;5030655;28;24423;-75
2021/11/03 00:13:40;;;;;;;4.10;3.50;;;;;;;3.95;100.00;94461.72;5030565;28;24439;-75
2021/11/03 00:16:07;;;;;;;4.28;3.88;;;;;;;4.03;100.00;94451.84;5030160;28;24490;-74
2021/11/03 00:18:33;;;;;;;5.30;3.90;;;;;;;4.07;100.00;94453.31;5030320;28;24416;-74
2021/11/03 00:21:02;;;;;;;4.47;4.00;;;;;;;4.07;100.00;94447.38;5030538;28;24428;-75
2021/11/03 00:23:28;;;;;;;3.55;3.20;;;;;;;4.15;100.00;94446.91;5030479;28;24428;-75
2021/11/03 00:25:55;;;;;;;6.20;3.85;;;;;;;4.36;100.00;94438.78;5030066;28;24995;-74
2021/11/03 00:28:22;;;;;;;9.07;4.35;;;;;;;4.39;100.00;94435.22;5030472;28;24416;-74
2021/11/03 00:30:53;;;;;;;5.70;3.83;;;;;;;4.47;100.00;94432.19;5030235;28;24423;-74
2021/11/03 00:33:20;;;;;;;9.43;4.07;;;;;;;4.40;100.00;94430.91;5030522;28;24446;-74
2021/11/03 00:35:47;;;;;;;3.70;3.40;;;;;;;4.35;100.00;94431.19;5029969;28;24988;-74
2021/11/03 00:38:13;;;;;;;3.97;3.58;;;;;;;4.17;100.00;94427.16;5030193;28;24961;-74
2021/11/03 00:40:40;;;;;;;3.85;3.45;;;;;;;4.20;100.00;94421.84;5030082;28;24428;-74
2021/11/03 00:43:06;;;;;;;8.15;5.82;;;;;;;4.33;100.00;94422.75;5030918;28;24807;-74
2021/11/03 00:45:34;;;;;;;13.20;7.43;;;;;;;4.41;100.00;94409.47;5033916;28;24446;-74
2021/11/03 00:48:02;;;;;;;7.82;6.72;;;;;;;4.37;100.00;94408.84;5034496;28;24420;-74
2021/11/03 00:50:29;;;;;;;9.38;6.78;;;;;;;4.34;100.00;94401.38;5034351;28;24438;-75
2021/11/03 00:52:56;;;;;;;7.53;6.35;;;;;;;4.53;100.00;94401.88;5034159;28;24443;-75
2021/11/03 00:55:23;;;;;;;6.57;5.93;;;;;;;4.60;100.00;94392.91;5033870;28;24422;-75
2021/11/03 00:57:49;;;;;;;6.38;5.40;;;;;;;4.35;100.00;94391.00;5034219;28;24976;-75
2021/11/03 01:00:18;;;;;;;7.20;6.30;;;;;;;4.36;100.00;94391.81;5033916;28;24786;-73
2021/11/03 01:02:45;;;;;;;8.00;5.70;;;;;;;4.27;100.00;94384.69;5034201;28;24415;-74
2021/11/03 01:05:16;;;;;;;7.00;5.68;;;;;;;4.26;100.00;94380.47;5033832;28;24420;-74
2021/11/03 01:07:42;;;;;;;9.75;6.47;;;;;;;4.28;100.00;94378.66;5034088;28;24419;-74
2021/11/03 01:10:11;;;;;;;12.30;8.10;;;;;;;4.35;100.00;94382.50;5033865;28;24427;-75
2021/11/03 01:12:38;;;;;;;10.20;7.32;;;;;;;4.26;100.00;94386.41;5033591;28;24976;-74
2021/11/03 01:15:08;;;;;;;9.65;6.75;;;;;;;4.22;100.00;94400.34;5033762;28;24432;-74
2021/11/03 01:17:35;;;;;;;7.97;5.82;;;;;;;4.19;100.00;94404.81;5033870;28;24420;-73
2021/11/03 01:20:01;;;;;;;6.10;4.22;;;;;;;4.24;100.00;94400.25;5033764;28;24416;-74
2021/11/03 01:22:29;;;;;;;5.75;3.17;;;;;;;4.34;100.00;94409.06;5033733;28;24431;-74
2021/11/03 01:24:56;;;;;;;4.40;2.92;;;;;;;4.34;100.00;94403.94;5033344;28;24422;-73
2021/11/03 01:27:22;;;;;;;3.42;2.33;;;;;;;4.18;100.00;94414.25;5033457;28;24988;-73
2021/11/03 01:29:49;;;;;;;7.05;2.20;;;;;;;4.11;100.00;94406.09;5033730;28;24416;-73
2021/11/03 01:32:15;;;;;;;6.75;2.17;;;;;;;4.06;100.00;94403.00;5033528;28;24463;-73
2021/11/03 01:34:42;;;;;;;7.22;1.95;;;;;;;4.09;100.00;94400.25;5033239;28;24419;-74
2021/11/03 01:37:08;;;;;;;2.22;1.70;;;;;;;4.18;100.00;94392.94;5033510;28;24785;-73
2021/11/03 01:39:36;;;;;;;3.92;1.77;;;;;;;4.22;100.00;94392.66;5033295;28;24438;-74
2021/11/03 01:42:03;;;;;;;2.10;1.88;;;;;;;4.23;100.00;94396.88;5032998;28;24507;-74
2021/11/03 01:44:29;;;;;;;2.70;1.98;;;;;;;4.18;100.00;94388.63;5033248;28;24416;-74
2021/11/03 01:46:58;;;;;;;2.90;2.08;;;;;;;4.21;100.00;94403.81;5033364;28;24427;-73
2021/11/03 01:49:28;;;;;;;2.67;1.98;;;;;;;4.25;100.00;94391.66;5033314;28;24419;-75
2021/11/03 01:52:00;;;;;;;3.22;2.20;;;;;;;4.22;100.00;94387.50;5033407;28;24761;-74
2021/11/03 01:54:30;;;;;;;2.17;1.67;;;;;;;4.32;100.00;94380.09;5032533;28;24499;-74
2021/11/03 01:56:59;;;;;;;3.50;2.20;;;;;;;4.33;100.00;94369.75;5033009;28;24431;-73
2021/11/03 01:59:30;;;;;;;3.20;2.08;;;;;;;4.24;100.00;94360.06;5033159;28;24427;-74
2021/11/03 02:01:56;;;;;;;2.35;2.15;;;;;;;4.34;100.00;94345.78;5032853;28;24976;-73
2021/11/03 02:04:25;;;;;;;2.25;2.05;;;;;;;4.48;100.00;94344.91;5032857;28;24415;-75
2021/11/03 02:06:54;;;;;;;2.97;2.30;;;;;;;4.70;100.00;94330.78;5032585;28;24467;-73
2021/11/03 02:09:21;;;;;;;2.50;2.22;;;;;;;4.63;100.00;94329.50;5033017;28;24419;-75
2021/11/03 02:11:47;;;;;;;3.67;2.30;;;;;;;4.50;100.00;94332.84;5032884;28;24495;-74
2021/11/03 02:14:15;;;;;;;3.15;2.22;;;;;;;4.49;100.00;94325.25;5032646;28;24436;-73
2021/11/03 02:16:46;;;;;;;5.53;2.42;;;;;;;5.19;100.00;94307.97;5032342;28;24431;-73
2021/11/03 02:19:17;;;;;;;2.40;2.20;;;;;;;5.08;100.00;94320.66;5032683;28;24423;-74
2021/11/03 02:21:51;;;;;;;3.72;2.20;;;;;;;4.71;100.00;94324.72;5032432;28;24976;-74
2021/11/03 02:24:26;;;;;;;2.90;2.30;;;;;;;4.55;100.00;94327.44;5032659;28;24412;-74
2021/11/03 02:26:58;;;;;;;2.35;1.85;;;;;;;4.52;100.00;94330.19;5032881;28;24429;-74
2021/11/03 02:29:25;;;;;;;2.92;2.20;;;;;;;4.54;100.00;94325.78;5032502;28;24501;-74
2021/11/03 02:31:54;;;;;;;2.13;1.92;;;;;;;4.56;100.00;94323.94;5032181;28;24420;-74
2021/11/03 02:34:24;;;;;;;2.40;1.88;;;;;;;4.57;100.00;94335.84;5032355;28;24462;-74
2021/11/03 02:36:54;;;;;;;2.08;1.88;;;;;;;4.62;100.00;94333.81;5032361;28;24435;-75
2021/11/03 02:39:25;;;;;;;3.00;2.15;;;;;;;4.61;100.00;94333.00;5032353;28;24427;-74
2021/11/03 02:41:55;;;;;;;2.90;2.05;;;;;;;4.60;100.00;94322.84;5032072;28;24427;-74
2021/11/03 02:44:24;;;;;;;3.30;2.47;;;;;;;4.63;100.00;94319.25;5032020;28;24408;-74
2021/11/03 02:46:51;;;;;;;2.20;2.00;;;;;;;4.54;100.00;94318.91;5032219;28;24517;-74
2021/11/03 02:49:18;;;;;;;2.53;2.03;;;;;;;4.63;100.00;94320.06;5032179;28;24419;-74
2021/11/03 02:51:46;;;;;;;3.50;2.30;;;;;;;4.66;100.00;94314.75;5032096;28;24436;-74
2021/11/03 02:54:16;;;;;;;2.53;2.17;;;;;;;4.72;100.00;94316.13;5031765;28;24439;-74
2021/11/03 02:56:44;;;;;;;2.53;1.95;;;;;;;4.64;100.00;94318.34;5031660;28;24507;-74
2021/11/03 02:59:14;;;;;;;2.50;2.03;;;;;;;4.65;100.00;94314.88;5032121;28;24427;-74
2021/11/03 03:01:43;;;;;;;2.85;1.90;;;;;;;4.58;100.00;94307.53;5031968;28;24502;-75
2021/11/03 03:04:12;;;;;;;3.67;2.43;;;;;;;4.57;100.00;94311.03;5031882;28;24487;-75
2021/11/03 03:06:39;;;;;;;2.10;1.90;;;;;;;4.63;100.00;94314.94;5030584;28;24415;-75
2021/11/03 03:09:07;;;;;;;2.35;2.15;;;;;;;4.59;100.00;94306.63;5031712;28;24431;-74
2021/11/03 03:11:36;;;;;;;2.63;1.90;;;;;;;4.59;100.00;94310.94;5031460;28;24423;-74
2021/11/03 03:14:04;;;;;;;4.20;2.22;;;;;;;4.56;100.00;94303.41;5031653;28;24440;-75
2021/11/03 03:16:33;;;;;;;2.80;1.73;;;;;;;4.58;100.00;94304.97;5031339;28;24428;-74
2021/11/03 03:19:00;;;;;;;2.20;1.83;;;;;;;4.59;100.00;94300.66;5031553;28;24416;-74
2021/11/03 03:21:26;;;;;;;2.90;2.10;;;;;;;4.59;100.00;94296.38;5031523;28;24422;-74
2021/11/03 03:23:53;;;;;;;2.28;2.08;;;;;;;4.63;100.00;94302.13;5031361;28;24420;-74
2021/11/03 03:26:22;;;;;;;2.78;2.00;;;;;;;4.62;100.00;94297.91;5031291;28;24431;-74
2021/11/03 03:28:49;;;;;;;3.13;2.00;;;;;;;4.58;100.00;94296.47;5031378;28;24459;-74
2021/11/03 03:31:17;;;;;;;2.70;2.10;;;;;;;4.53;100.00;94299.34;5031328;28;24510;-74
2021/11/03 03:33:46;;;;;;;3.70;2.10;;;;;;;4.57;100.00;94305.09;5031148;28;24447;-74
2021/11/03 03:36:13;;;;;;;4.97;2.15;;;;;;;4.40;100.00;94306.13;5030948;28;25008;-74
2021/11/03 03:38:40;;;;;;;2.40;1.90;;;;;;;4.48;100.00;94311.59;5030986;28;24430;-74
2021/11/03 03:41:07;;;;;;;3.08;2.25;;;;;;;4.51;100.00;94316.53;5030833;28;25000;-74
2021/11/03 03:43:33;;;;;;;2.90;2.25;;;;;;;4.43;100.00;94311.06;5029319;28;24432;-74
2021/11/03 03:46:00;;;;;;;2.92;1.90;;;;;;;4.39;100.00;94311.38;5023736;28;24439;-74
2021/11/03 03:48:27;;;;;;;2.47;1.98;;;;;;;4.46;100.00;94310.88;5031001;28;24431;-74
2021/11/03 03:50:55;;;;;;;2.60;2.20;;;;;;;4.50;100.00;94303.81;5026894;28;24436;-75
2021/11/03 03:53:22;;;;;;;2.70;2.10;;;;;;;4.55;100.00;94291.53;5026697;28;25044;-74
2021/11/03 03:55:49;;;;;;;3.00;2.22;;;;;;;4.55;100.00;94300.03;5027224;28;24432;-74
2021/11/03 03:58:17;;;;;;;2.72;2.10;;;;;;;4.52;100.00;94305.34;5026135;28;24513;-74
2021/11/03 04:00:44;;;;;;;6.03;2.20;;;;;;;4.47;100.00;94294.56;5030703;28;24438;-74
2021/11/03 04:03:10;;;;;;;3.33;2.33;;;;;;;4.50;100.00;94299.50;5030748;28;24420;-74
2021/11/03 04:05:37;;;;;;;3.80;2.38;;;;;;;4.35;100.00;94296.16;5030154;28;24423;-74
2021/11/03 04:08:05;;;;;;;3.57;2.10;;;;;;;4.45;100.00;94293.88;5030598;28;24431;-73
2021/11/03 04:10:32;;;;;;;2.63;2.13;;;;;;;4.41;100.00;94297.50;5030705;28;24426;-74
2021/11/03 04:12:59;;;;;;;4.88;2.22;;;;;;;4.34;100.00;94296.28;5030680;28;24450;-75
2021/11/03 04:15:25;;;;;;;2.10;1.90;;;;;;;4.32;100.00;94287.84;5030219;28;24411;-74
2021/11/03 04:17:51;;;;;;;3.55;2.42;;;;;;;4.37;100.00;94280.69;5030144;28;24970;-75
2021/11/03 04:20:18;;;;;;;2.00;1.80;;;;;;;4.45;100.00;94291.31;5030295;28;24436;-73
2021/11/03 04:22:45;;;;;;;2.42;1.92;;;;;;;4.56;100.00;94283.75;5030624;28;24416;-74
2021/11/03 04:25:15;;;;;;;3.30;2.10;;;;;;;4.51;100.00;94288.34;5030076;28;24965;-75
2021/11/03 04:27:42;;;;;;;2.80;1.80;;;;;;;4.45;100.00;94278.50;5030329;28;25047;-75
2021/11/03 04:30:14;;;;;;;2.88;2.20;;;;;;;4.56;100.00;94280.34;5029848;28;20745;-74
2021/11/03 04:32:41;;;;;;;2.10;1.90;;;;;;;4.52;100.00;94277.16;5030774;28;24424;-74
2021/11/03 04:35:08;;;;;;;1.90;1.80;;;;;;;4.63;100.00;94280.78;5030261;28;24435;-74
2021/11/03 04:37:35;;;;;;;2.45;2.15;;;;;;;4.62;100.00;94279.97;5030194;28;24424;-74
2021/11/03 04:40:03;;;;;;;3.25;2.13;;;;;;;4.67;100.00;94275.38;5021972;28;24436;-75
2021/11/03 04:42:31;;;;;;;3.17;2.17;;;;;;;4.67;100.00;94275.38;5095410;23;25068;-75
2021/11/03 04:44:57;;;;;;;3.10;1.90;;;;;;;4.67;100.00;94259.97;5070018;28;24541;-75
2021/11/03 04:47:24;;;;;;;3.30;2.33;;;;;;;4.60;100.00;94267.25;5070308;28;24434;-75
2021/11/03 04:49:50;;;;;;;2.60;1.97;;;;;;;4.53;100.00;94262.63;5070444;28;24854;-75
2021/11/03 04:52:17;;;;;;;3.03;2.07;;;;;;;4.57;100.00;94258.94;5070210;28;24483;-76
2021/11/03 04:54:43;;;;;;;2.90;2.00;;;;;;;4.59;100.00;94257.91;5069659;28;25049;-75
2021/11/03 04:57:16;;;;;;;3.70;2.15;;;;;;;4.59;100.00;94245.09;5070161;28;24410;-75
2021/11/03 04:59:45;;;;;;;2.45;2.05;;;;;;;4.66;100.00;94242.94;5070076;28;25005;-75
2021/11/03 05:02:12;;;;;;;2.30;2.10;;;;;;;4.56;100.00;94244.44;5070165;28;24468;-75
2021/11/03 05:04:38;;;;;;;3.90;2.40;;;;;;;4.55;100.00;94227.44;5069888;28;24426;-75
2021/11/03 05:07:05;;;;;;;2.85;2.17;;;;;;;4.64;100.00;94229.44;5070041;28;24421;-75
2021/11/03 05:09:32;;;;;;;4.07;2.17;;;;;;;4.60;100.00;94239.06;5070570;28;24430;-76
2021/11/03 05:11:59;;;;;;;3.08;2.28;;;;;;;4.66;100.00;94229.31;5069903;28;25033;-76
2021/11/03 05:14:26;;;;;;;2.58;2.25;;;;;;;4.60;100.00;94230.53;5067845;28;24541;-76
2021/11/03 05:16:54;;;;;;;2.90;2.25;;;;;;;4.59;100.00;94219.44;5061530;28;24434;-75
2021/11/03 05:19:23;;;;;;;3.00;2.10;;;;;;;4.67;100.00;94213.00;5060447;28;24816;-76
2021/11/03 05:21:53;;;;;;;2.33;1.90;;;;;;;4.73;100.00;94215.19;5066245;28;24514;-76
2021/11/03 05:24:20;;;;;;;2.30;2.10;;;;;;;4.73;100.00;94213.44;5066462;28;24423;-76
2021/11/03 05:26:47;;;;;;;2.25;2.00;;;;;;;4.77;100.00;94208.94;5069801;28;24419;-75
2021/11/03 05:29:15;;;;;;;2.72;2.00;;;;;;;4.73;100.00;94210.88;5069913;28;24469;-76
2021/11/03 05:31:42;;;;;;;3.47;2.28;;;;;;;4.75;100.00;94200.53;5072616;28;24978;-75
2021/11/03 05:34:10;;;;;;;2.60;2.20;;;;;;;4.77;100.00;94198.66;5066234;28;24495;-75
2021/11/03 05:36:37;;;;;;;7.15;2.50;;;;;;;4.83;100.00;94191.41;5071112;28;24488;-75
2021/11/03 05:39:07;;;;;;;3.13;2.20;;;;;;;4.83;100.00;94188.03;5064955;28;24995;-75
2021/11/03 05:41:37;;;;;;;3.07;1.97;;;;;;;4.82;100.00;94197.47;5073347;28;24429;-76
2021/11/03 05:44:05;;;;;;;2.30;2.05;;;;;;;4.82;100.00;94188.91;5067801;28;24531;-76
2021/11/03 05:46:35;;;;;;;4.20;2.47;;;;;;;4.65;100.00;94182.34;5070036;28;24916;-76
2021/11/03 05:49:05;;;;;;;2.95;2.35;;;;;;;4.53;100.00;94180.56;5068051;28;24431;-75
2021/11/03 05:51:34;;;;;;;6.57;2.50;;;;;;;4.65;100.00;94174.66;5070370;28;24449;-76
2021/11/03 05:54:00;;;;;;;3.90;2.60;;;;;;;4.60;100.00;94172.38;5072751;28;24445;-75
2021/11/03 05:56:26;;;;;;;2.97;2.30;;;;;;;4.70;100.00;94170.03;5072680;28;25000;-75
2021/11/03 05:58:53;;;;;;;6.03;2.60;;;;;;;4.48;100.00;94174.91;5073134;28;24421;-75
2021/11/03 06:01:20;;;;;;;4.63;2.75;;;;;;;4.33;100.00;94174.97;5072762;28;24995;-76
2021/11/03 06:03:46;;;;;;;2.60;2.30;;;;;;;4.41;100.00;94168.53;5072929;28;24430;-76
2021/11/03 06:06:13;;;;;;;2.72;2.30;;;;;;;4.34;100.00;94160.44;5072521;28;24504;-75
2021/11/03 06:08:41;;;;;;;2.42;2.22;;;;;;;4.30;100.00;94156.41;5069622;28;24438;-75
2021/11/03 06:11:11;;;;;;;3.25;2.50;;;;;;;4.30;100.00;94153.84;5066655;28;24435;-76
2021/11/03 06:13:38;;;;;;;3.27;2.50;;;;;;;4.40;100.00;94149.78;5069211;28;24450;-76
2021/11/03 06:16:05;;;;;;;3.17;2.22;;;;;;;4.46;100.00;94149.38;5066080;28;24435;-76
2021/11/03 06:18:31;;;;;;;2.65;2.38;;;;;;;4.55;100.00;94176.97;5072572;28;24422;-75
2021/11/03 06:20:58;;;;;;;3.83;2.53;;;;;;;4.63;100.00;94176.47;5072430;28;24425;-75
2021/11/03 06:23:24;;;;;;;2.60;2.33;;;;;;;4.70;100.00;94175.16;5072662;28;24434;-76
2021/11/03 06:25:52;;;;;;;3.35;2.38;;;;;;;4.70;100.00;94189.72;5060532;28;24431;-76
2021/11/03 06:28:19;;;;;;;5.30;3.10;;;;;;;4.59;100.00;94182.72;5052548;28;24422;-76
2021/11/03 06:30:46;;;;;;;3.60;2.80;;;;;;;4.65;100.00;94176.41;5052933;28;24419;-76
2021/11/03 06:33:13;;;;;;;4.30;2.80;;;;;;;4.66;100.00;94171.16;5057414;28;24426;-76
2021/11/03 06:35:42;;;;;;;3.50;3.03;;;;;;;4.71;100.00;94179.38;5063342;28;25030;-75
2021/11/03 06:38:10;;;;;;;4.30;3.00;;;;;;;4.79;100.00;94171.19;5072187;28;24456;-76
2021/11/03 06:40:38;;;;;;;4.07;3.47;;;;;;;4.81;100.00;94177.03;5072045;28;24430;-76
2021/11/03 06:43:06;;;;;;;5.55;2.88;;;;;;;4.79;100.00;94179.69;5072289;28;24776;-70
2021/11/03 06:45:32;;;;;;;3.67;3.00;;;;;;;4.85;100.00;94175.91;5071786;28;24430;-76
2021/11/03 06:47:59;;;;;;;3.60;3.20;;;;;;;4.81;100.00;94177.84;5072002;28;24505;-75
2021/11/03 06:50:29;;;;;;;4.03;3.30;;;;;;;4.83;100.00;94172.63;5071844;28;24784;-75
2021/11/03 06:52:57;;;;;;;6.13;4.20;;;;;;;4.88;100.00;94168.00;5071992;28;24426;-71
2021/11/03 06:55:24;;;;;;;6.28;4.85;;;;;;;4.98;100.00;94158.78;5063845;28;24855;-76
2021/11/03 06:57:51;;;;;;;5.53;4.93;;;;;;;5.36;100.00;94157.94;5071899;28;24443;-76
2021/11/03 07:00:24;;;;;;;7.00;4.90;;;;;;;5.00;100.00;94156.91;5072150;28;24435;-76
2021/11/03 07:02:51;;;;;;;6.97;5.30;;;;;;;4.76;100.00;94156.00;5071595;28;24426;-76
2021/11/03 07:05:17;;;;;;;5.93;4.85;;;;;;;4.68;100.00;94168.50;5071569;28;24411;-76
2021/11/03 07:07:44;;;;;;;7.63;5.85;;;;;;;4.69;100.00;94157.31;5072599;28;24422;-76
2021/11/03 07:10:18;;;;;;;6.72;5.93;;;;;;;4.95;100.00;94153.03;5071745;28;24422;-76
2021/11/03 07:12:44;;;;;;;5.80;3.38;;;;;;;5.23;100.00;94146.88;5071325;28;25004;-75
2021/11/03 07:15:11;;;;;;;5.90;3.70;;;;;;;5.05;100.00;94147.19;5071021;28;24808;-76
2021/11/03 07:17:39;;;;;;;4.13;3.60;;;;;;;4.85;100.00;94155.38;5071553;28;24423;-76
2021/11/03 07:20:06;;;;;;;5.40;3.55;;;;;;;4.89;100.00;94167.06;5071781;28;24418;-76
2021/11/03 07:22:33;;;;;;;3.87;3.10;;;;;;;4.94;100.00;94165.03;5071345;28;24520;-76
2021/11/03 07:24:59;;;;;;;4.00;3.47;;;;;;;4.98;100.00;94160.53;5070969;28;24984;-76
2021/11/03 07:27:26;;;;;;;5.57;4.47;;;;;;;4.94;100.00;94165.03;5071271;28;24819;-76
2021/11/03 07:29:52;;;;;;;8.13;4.45;;;;;;;4.96;100.00;94152.91;5071086;28;24434;-76
2021/11/03 07:32:19;;;;;;;6.53;4.30;;;;;;;4.93;100.00;94162.56;5071338;28;24429;-76
2021/11/03 07:34:47;;;;;;;6.85;4.82;;;;;;;4.85;100.00;94155.38;5070862;28;24445;-76
2021/11/03 07:37:13;;;;;;;7.82;4.32;;;;;;;4.82;100.00;94160.69;5071116;28;24968;-76
2021/11/03 07:39:40;;;;;;;5.35;4.03;;;;;;;4.89;100.00;94172.19;5071166;28;24434;-76
2021/11/03 07:42:07;;;;;;;5.95;3.60;;;;;;;4.98;100.00;94176.75;5070624;28;24982;-76
2021/11/03 07:44:33;;;;;;;4.63;3.50;;;;;;;4.98;100.00;94165.66;5070524;28;24434;-76
2021/11/03 07:47:00;;;;;;;5.05;4.00;;;;;;;5.03;100.00;94161.03;5071114;28;24430;-76
2021/11/03 07:49:26;;;;;;;5.35;3.55;;;;;;;5.12;100.00;94175.84;5071069;28;24431;-76
2021/11/03 07:51:54;;;;;;;4.63;3.70;;;;;;;5.14;100.00;94184.22;5070860;28;24429;-76
2021/11/03 07:54:21;;;;;;;4.97;3.45;;;;;;;5.16;100.00;94184.97;5070027;28;24450;-76
2021/11/03 07:56:48;;;;;;;5.15;3.83;;;;;;;5.12;100.00;94173.25;5070486;28;24423;-76
2021/11/03 07:59:15;;;;;;;5.22;3.60;;;;;;;5.19;100.00;94171.94;5070777;28;24430;-76
2021/11/03 08:01:42;;;;;;;3.45;3.15;;;;;;;5.14;100.00;94165.44;5070692;28;24427;-76
2021/11/03 08:04:09;;;;;;;3.65;3.22;;;;;;;5.14;100.00;94163.69;5071129;28;24422;-75
2021/11/03 08:06:36;;;;;;;4.97;3.20;;;;;;;5.04;100.00;94171.22;5048775;28;24431;-75
2021/11/03 08:09:06;;;;;;;3.60;3.05;;;;;;;5.14;100.00;94175.72;5050452;28;24454;-75
2021/11/03 08:11:37;;;;;;;3.17;2.88;;;;;;;5.24;100.00;94189.59;5050302;28;24501;-75
2021/11/03 08:14:03;;;;;;;4.80;3.30;;;;;;;5.24;100.00;94179.31;5050639;28;24423;-75
2021/11/03 08:16:42;;;;;;;8.10;3.28;;;;;;;5.29;100.00;94184.94;5066883;28;24433;-75
2021/11/03 08:19:08;;;;;;;3.33;2.60;;;;;;;5.39;100.00;94187.72;5070473;28;24418;-75
2021/11/03 08:21:35;;;;;;;4.50;2.70;;;;;;;5.45;100.00;94185.56;5070294;28;24998;-75
2021/11/03 08:24:02;;;;;;;4.97;3.65;;;;;;;5.33;100.00;94182.06;5070227;28;24411;-75
2021/11/03 08:26:30;;;;;;;4.38;3.33;;;;;;;5.32;100.00;94172.72;5070027;28;24429;-74
2021/11/03 08:28:56;;;;;;;4.28;3.60;;;;;;;5.27;100.00;94176.53;5070478;28;24444;-75
2021/11/03 08:31:23;;;;;;;4.68;3.17;;;;;;;5.40;100.00;94171.38;5070133;28;24435;-75
2021/11/03 08:33:49;;;;;;;4.40;3.50;;;;;;;5.47;100.00;94170.88;5070312;28;24483;-75
2021/11/03 08:36:18;;;;;;;5.03;3.60;;;;;;;5.46;100.00;94173.56;5069667;28;24458;-74
2021/11/03 08:38:45;;;;;;;3.47;2.80;;;;;;;5.53;100.00;94178.16;5082723;28;24450;-74
2021/11/03 08:41:12;;;;;;;4.50;3.30;;;;;;;5.65;100.00;94173.09;5089939;28;24954;-73
2021/11/03 08:43:45;;;;;;;5.97;3.00;;;;;;;5.70;100.00;94182.13;5090556;28;24418;-73
2021/11/03 08:46:12;;;;;;;3.40;3.05;;;;;;;5.71;100.00;94182.94;5075477;28;24462;-74
2021/11/03 08:48:38;;;;;;;4.10;3.10;;;;;;;5.74;100.00;94188.69;5070191;28;24426;-74
2021/11/03 08:51:05;;;;;;;4.20;3.38;;;;;;;5.77;100.00;94185.91;5069858;28;25030;-73
2021/11/03 08:53:31;;;;;;;4.03;3.13;;;;;;;5.81;100.00;94186.53;5069985;28;24983;-74
2021/11/03 08:55:58;;;;;;;6.88;3.85;;;;;;;5.84;100.00;94178.59;5069632;28;24473;-73
2021/11/03 08:58:27;;;;;;;7.05;3.03;;;;;;;5.88;100.00;94192.06;5070128;28;24419;-74
2021/11/03 09:00:58;;;;;;;7.70;3.13;;;;;;;5.92;100.00;94186.63;5057591;28;24974;-74
2021/11/03 09:03:25;;;;;;;7.28;3.58;;;;;;;5.94;100.00;94182.22;5049831;28;24952;-74
2021/11/03 09:05:52;;;;;;;4.45;3.22;;;;;;;6.01;100.00;94177.47;5066772;28;24427;-73
2021/11/03 09:08:19;;;;;;;5.57;3.45;;;;;;;6.12;100.00;94180.09;5061641;28;24443;-73
2021/11/03 09:10:48;;;;;;;3.08;2.22;;;;;;;6.15;100.00;94173.91;5033568;28;24434;-73
2021/11/03 09:13:17;;;;;;;4.80;2.78;;;;;;;6.13;100.00;94171.47;5034050;28;24423;-74
2021/11/03 09:15:44;;;;;;;4.60;2.80;;;;;;;6.24;100.00;94174.09;5033211;28;25020;-74
2021/11/03 09:18:13;;;;;;;4.30;3.10;;;;;;;6.30;100.00;94172.81;5033604;28;24420;-74
2021/11/03 09:20:40;;;;;;;4.80;3.33;;;;;;;6.32;100.00;94165.00;5033921;28;24431;-73
2021/11/03 09:23:07;;;;;;;4.88;2.92;;;;;;;6.33;100.00;94162.31;5033618;28;24833;-74
2021/11/03 09:25:34;;;;;;;6.40;3.30;;;;;;;6.33;100.00;94164.06;5033557;28;24419;-74
2021/11/03 09:28:01;;;;;;;5.30;3.33;;;;;;;6.40;100.00;94163.50;5033695;28;24423;-73
2021/11/03 09:30:28;;;;;;;4.57;3.42;;;;;;;6.45;100.00;94164.03;5025013;28;24791;-74
2021/11/03 09:32:59;;;;;;;7.07;3.97;;;;;;;6.39;100.00;94167.03;5013568;28;24431;-74
2021/11/03 09:35:34;;;;;;;4.85;3.70;;;;;;;6.56;100.00;94160.66;5023067;28;24448;-73
2021/11/03 09:38:01;;;;;;;7.63;4.00;;;;;;;6.64;100.00;94167.84;5033592;28;24754;-74
2021/11/03 09:40:32;;;;;;;5.93;3.20;;;;;;;6.59;100.00;94177.63;5033560;28;24965;-73
2021/11/03 09:42:59;;;;;;;3.87;3.03;;;;;;;6.52;100.00;94182.38;5033088;28;24524;-74
2021/11/03 09:45:28;;;;;;;4.85;3.45;;;;;;;6.54;100.00;94185.69;5033027;28;24444;-74
2021/11/03 09:48:04;;;;;;;5.60;3.38;;;;;;;6.51;100.00;94180.75;5033458;28;24428;-74
2021/11/03 09:50:36;;;;;;;8.73;3.60;;;;;;;6.65;100.00;94177.19;5033300;28;24419;-74
2021/11/03 09:53:18;;;;;;;6.22;3.00;;;;;;;6.70;100.00;94170.75;5033190;28;24505;-74
2021/11/03 09:55:44;;;;;;;6.60;2.90;;;;;;;6.68;100.00;94172.63;5032192;28;24452;-74
2021/11/03 09:58:31;;;;;;;3.40;2.60;;;;;;;6.81;100.00;94182.84;5033355;28;24427;-74
2021/11/03 10:01:03;;;;;;;8.80;3.22;;;;;;;6.91;100.00;94201.81;5032621;28;24432;-74
2021/11/03 10:03:39;;;;;;;3.65;2.45;;;;;;;6.90;100.00;94197.63;5032947;28;24427;-73
2021/11/03 10:06:13;;;;;;;2.67;2.15;;;;;;;6.87;100.00;94195.28;5032084;28;24424;-74
2021/11/03 10:08:42;;;;;;;3.17;2.05;;;;;;;6.95;100.00;94192.94;5032883;28;24436;-74
2021/11/03 10:11:19;;;;;;;4.85;2.40;;;;;;;6.94;100.00;94196.47;5032896;28;20780;-73
2021/11/03 10:13:47;;;;;;;4.22;2.58;;;;;;;6.93;100.00;94201.69;5032923;28;20673;-73
2021/11/03 10:16:28;;;;;;;5.57;2.80;;;;;;;6.95;100.00;94194.69;5031920;28;24452;-73
2021/11/03 10:19:06;;;;;;;3.58;2.45;;;;;;;7.01;100.00;94197.66;5032838;28;21327;-74
2021/11/03 10:21:43;;;;;;;3.70;2.37;;;;;;;7.03;100.00;94195.75;5033136;28;20795;-74
2021/11/03 10:24:31;;;;;;;5.28;2.75;;;;;;;7.02;100.00;94195.91;5032327;28;24463;-74
2021/11/03 10:27:01;;;;;;;7.20;3.55;;;;;;;7.02;100.00;94194.13;5020609;28;24885;-74
2021/11/03 10:29:31;;;;;;;3.70;2.40;;;;;;;7.06;100.00;94188.75;5012555;28;20758;-74
2021/11/03 10:32:00;;;;;;;5.18;3.22;;;;;;;7.04;100.00;94194.00;5032541;28;24412;-74
2021/11/03 10:34:41;;;;;;;5.03;3.10;;;;;;;7.07;100.00;94203.25;5032083;28;24426;-73
2021/11/03 10:37:21;;;;;;;6.10;3.20;;;;;;;7.12;100.00;94196.00;5032410;28;24411;-74
2021/11/03 10:39:56;;;;;;;6.28;3.28;;;;;;;7.14;100.00;94196.72;5032736;28;20727;-73
2021/11/03 10:42:27;;;;;;;3.85;2.38;;;;;;;7.10;100.00;94203.88;5032694;28;20702;-74
2021/11/03 10:45:18;;;;;;;4.63;2.93;;;;;;;7.20;100.00;94202.25;5032247;28;20673;-73
2021/11/03 10:47:47;;;;;;;10.90;4.22;;;;;;;7.32;100.00;94203.09;5032169;28;20702;-74
2021/11/03 10:50:27;;;;;;;6.07;3.45;;;;;;;7.40;100.00;94203.31;5032546;28;20862;-74
2021/11/03 10:52:57;;;;;;;9.45;3.58;;;;;;;7.41;100.00;94202.38;5032016;28;21262;-74
2021/11/03 10:55:28;;;;;;;8.73;4.20;;;;;;;7.42;100.00;94210.94;5031972;28;20772;-74
2021/11/03 10:58:06;;;;;;;11.80;5.50;;;;;;;7.27;100.00;94207.78;5032193;28;21248;-73
2021/11/03 11:00:37;;;;;;;11.13;6.20;;;;;;;7.32;100.00;94197.13;5032357;28;20771;-74
2021/11/03 11:03:06;;;;;;;6.53;3.88;;;;;;;7.34;100.00;94201.22;5031988;28;24424;-73
2021/11/03 11:05:36;;;;;;;6.35;3.30;;;;;;;7.34;100.00;94196.06;5031595;28;20764;-74
2021/11/03 11:08:16;;;;;;;3.72;2.38;;;;;;;7.36;100.00;94196.75;5031760;28;24953;-73
2021/11/03 11:10:47;;;;;;;4.50;2.38;;;;;;;7.31;100.00;94201.44;5031767;28;24420;-74
2021/11/03 11:13:19;;;;;;;3.60;1.80;;;;;;;7.35;100.00;94202.03;5032176;28;20744;-74
2021/11/03 11:15:55;;;;;;;6.78;2.55;;;;;;;7.31;100.00;94216.09;5031581;28;20718;-74
2021/11/03 11:18:43;;;;;;;4.22;2.70;;;;;;;7.32;100.00;94205.66;5031788;28;21355;-74
2021/11/03 11:21:17;;;;;;;5.72;2.20;;;;;;;7.37;100.00;94200.97;5031381;28;21364;-74
2021/11/03 11:23:51;;;;;;;5.95;2.47;;;;;;;7.36;100.00;94213.97;5031531;28;20644;-74
2021/11/03 11:26:23;;;;;;;8.43;3.85;;;;;;;7.33;100.00;94209.06;5031476;28;20809;-74
2021/11/03 11:28:56;;;;;;;9.60;4.40;;;;;;;7.31;100.00;94205.78;5030578;28;24523;-74
2021/11/03 11:31:30;;;;;;;15.07;4.05;;;;;;;7.35;100.00;94209.78;5031284;28;20791;-74
2021/11/03 11:34:05;;;;;;;7.45;3.53;;;;;;;7.29;100.00;94203.31;5031539;28;24420;-74
2021/11/03 11:36:39;;;;;;;6.90;3.78;;;;;;;7.21;100.00;94203.88;5030877;28;24989;-74
2021/11/03 11:39:16;;;;;;;8.50;4.00;;;;;;;7.23;100.00;94203.75;5031463;28;20736;-74
2021/11/03 11:41:54;;;;;;;5.50;3.40;;;;;;;7.24;100.00;94201.09;5026417;28;25001;-73